sensor_id;sensor_type;location;lat;lon;timestamp;temperature;humidity
480;DHT22;226;48.606;9.096;2023-02-26T00:01:22;0.80;31.00
480;DHT22;226;48.606;9.096;2023-02-26T00:03:51;0.80;31.80
480;DHT22;226;48.606;9.096;2023-02-26T00:06:19;0.70;32.90
480;DHT22;226;48.606;9.096;2023-02-26T00:08:48;0.60;31.90
480;DHT22;226;48.606;9.096;2023-02-26T00:11:18;0.70;32.40
480;DHT22;226;48.606;9.096;2023-02-26T00:13:46;1.20;33.20
480;DHT22;226;48.606;9.096;2023-02-26T00:16:25;0.60;31.90
480;DHT22;226;48.606;9.096;2023-02-26T00:18:54;0.60;32.00
480;DHT22;226;48.606;9.096;2023-02-26T00:21:23;1.60;32.10
480;DHT22;226;48.606;9.096;2023-02-26T00:23:51;0.40;30.80
480;DHT22;226;48.606;9.096;2023-02-26T00:26:23;0.60;32.10
480;DHT22;226;48.606;9.096;2023-02-26T00:28:53;0.50;31.90
480;DHT22;226;48.606;9.096;2023-02-26T00:31:22;0.40;31.50
480;DHT22;226;48.606;9.096;2023-02-26T00:33:54;0.40;32.00
480;DHT22;226;48.606;9.096;2023-02-26T00:36:28;0.60;31.70
480;DHT22;226;48.606;9.096;2023-02-26T00:39:06;0.40;30.30
480;DHT22;226;48.606;9.096;2023-02-26T00:41:38;0.40;30.40
480;DHT22;226;48.606;9.096;2023-02-26T00:44:07;0.50;30.60
480;DHT22;226;48.606;9.096;2023-02-26T00:46:41;0.30;29.60
480;DHT22;226;48.606;9.096;2023-02-26T00:49:20;0.40;30.60
480;DHT22;226;48.606;9.096;2023-02-26T00:51:52;0.30;30.40
480;DHT22;226;48.606;9.096;2023-02-26T00:54:23;0.20;30.20
480;DHT22;226;48.606;9.096;2023-02-26T00:56:55;0.20;30.70
480;DHT22;226;48.606;9.096;2023-02-26T00:59:24;0.20;30.00
480;DHT22;226;48.606;9.096;2023-02-26T01:01:52;1.10;33.80
480;DHT22;226;48.606;9.096;2023-02-26T01:04:22;0.10;33.00
480;DHT22;226;48.606;9.096;2023-02-26T01:06:52;0.20;33.10
480;DHT22;226;48.606;9.096;2023-02-26T01:09:24;0.30;32.10
480;DHT22;226;48.606;9.096;2023-02-26T01:11:55;0.30;31.60
480;DHT22;226;48.606;9.096;2023-02-26T01:14:27;0.20;30.90
480;DHT22;226;48.606;9.096;2023-02-26T01:17:02;0.30;31.50
480;DHT22;226;48.606;9.096;2023-02-26T01:19:37;0.20;31.00
480;DHT22;226;48.606;9.096;2023-02-26T01:22:14;0.20;30.50
480;DHT22;226;48.606;9.096;2023-02-26T01:24:42;0.70;31.00
480;DHT22;226;48.606;9.096;2023-02-26T01:27:13;1.50;32.10
480;DHT22;226;48.606;9.096;2023-02-26T01:29:41;0.10;30.10
480;DHT22;226;48.606;9.096;2023-02-26T01:32:15;0.20;30.70
480;DHT22;226;48.606;9.096;2023-02-26T01:34:50;0.10;29.80
480;DHT22;226;48.606;9.096;2023-02-26T01:37:23;0.90;30.80
480;DHT22;226;48.606;9.096;2023-02-26T01:40:16;0.20;29.60
480;DHT22;226;48.606;9.096;2023-02-26T01:42:51;0.80;29.60
480;DHT22;226;48.606;9.096;2023-02-26T01:45:25;0.10;29.30
480;DHT22;226;48.606;9.096;2023-02-26T01:48:02;0.10;29.00
480;DHT22;226;48.606;9.096;2023-02-26T01:50:34;0.20;30.00
480;DHT22;226;48.606;9.096;2023-02-26T01:53:18;0.10;28.90
480;DHT22;226;48.606;9.096;2023-02-26T01:55:50;0.10;28.70
480;DHT22;226;48.606;9.096;2023-02-26T01:58:21;0.00;28.90
480;DHT22;226;48.606;9.096;2023-02-26T02:00:50;0.10;28.70
480;DHT22;226;48.606;9.096;2023-02-26T02:03:19;0.00;28.60
480;DHT22;226;48.606;9.096;2023-02-26T02:05:51;0.40;29.60
480;DHT22;226;48.606;9.096;2023-02-26T02:08:21;-0.10;28.80
480;DHT22;226;48.606;9.096;2023-02-26T02:10:50;0.30;29.40
480;DHT22;226;48.606;9.096;2023-02-26T02:13:28;-0.30;29.60
480;DHT22;226;48.606;9.096;2023-02-26T02:16:06;-0.10;29.50
480;DHT22;226;48.606;9.096;2023-02-26T02:18:42;-0.30;29.70
480;DHT22;226;48.606;9.096;2023-02-26T02:21:28;-0.30;29.30
480;DHT22;226;48.606;9.096;2023-02-26T02:24:03;0.60;30.10
480;DHT22;226;48.606;9.096;2023-02-26T02:26:59;0.80;30.30
480;DHT22;226;48.606;9.096;2023-02-26T02:29:44;-0.20;31.90
480;DHT22;226;48.606;9.096;2023-02-26T02:32:18;-0.30;31.80
480;DHT22;226;48.606;9.096;2023-02-26T02:34:51;-0.10;32.40
480;DHT22;226;48.606;9.096;2023-02-26T02:37:23;0.20;32.40
480;DHT22;226;48.606;9.096;2023-02-26T02:39:56;-0.50;30.80
480;DHT22;226;48.606;9.096;2023-02-26T02:42:30;-0.50;30.90
480;DHT22;226;48.606;9.096;2023-02-26T02:45:04;-0.50;30.20
480;DHT22;226;48.606;9.096;2023-02-26T02:47:38;-0.50;30.40
480;DHT22;226;48.606;9.096;2023-02-26T02:50:12;-0.40;30.30
480;DHT22;226;48.606;9.096;2023-02-26T02:52:44;-0.50;29.70
480;DHT22;226;48.606;9.096;2023-02-26T02:55:18;-0.60;29.40
480;DHT22;226;48.606;9.096;2023-02-26T02:57:50;-0.60;30.00
480;DHT22;226;48.606;9.096;2023-02-26T03:00:21;-0.70;30.40
480;DHT22;226;48.606;9.096;2023-02-26T03:02:58;-0.80;30.00
480;DHT22;226;48.606;9.096;2023-02-26T03:05:27;-0.80;30.80
480;DHT22;226;48.606;9.096;2023-02-26T03:07:59;0.90;32.30
480;DHT22;226;48.606;9.096;2023-02-26T03:10:29;-0.70;29.80
480;DHT22;226;48.606;9.096;2023-02-26T03:12:58;-0.80;29.80
480;DHT22;226;48.606;9.096;2023-02-26T03:15:33;-0.20;31.00
480;DHT22;226;48.606;9.096;2023-02-26T03:18:15;-0.70;29.90
480;DHT22;226;48.606;9.096;2023-02-26T03:20:53;1.00;31.60
480;DHT22;226;48.606;9.096;2023-02-26T03:23:30;-0.60;29.90
480;DHT22;226;48.606;9.096;2023-02-26T03:26:05;-0.90;29.40
480;DHT22;226;48.606;9.096;2023-02-26T03:28:40;-0.80;30.30
480;DHT22;226;48.606;9.096;2023-02-26T03:31:15;-0.30;30.60
480;DHT22;226;48.606;9.096;2023-02-26T03:33:51;-0.90;29.50
480;DHT22;226;48.606;9.096;2023-02-26T03:36:24;-1.00;30.20
480;DHT22;226;48.606;9.096;2023-02-26T03:38:57;-0.90;29.60
480;DHT22;226;48.606;9.096;2023-02-26T03:41:29;-0.90;29.20
480;DHT22;226;48.606;9.096;2023-02-26T03:44:02;-1.30;29.80
480;DHT22;226;48.606;9.096;2023-02-26T03:46:36;-0.90;29.80
480;DHT22;226;48.606;9.096;2023-02-26T03:49:11;-1.00;29.40
480;DHT22;226;48.606;9.096;2023-02-26T03:51:41;-1.10;29.90
480;DHT22;226;48.606;9.096;2023-02-26T03:54:14;-1.10;30.50
480;DHT22;226;48.606;9.096;2023-02-26T03:56:45;-1.10;30.50
480;DHT22;226;48.606;9.096;2023-02-26T03:59:14;-1.00;31.50
480;DHT22;226;48.606;9.096;2023-02-26T04:01:46;-1.20;31.00
480;DHT22;226;48.606;9.096;2023-02-26T04:04:19;-1.10;30.90
480;DHT22;226;48.606;9.096;2023-02-26T04:06:48;-1.10;30.60
480;DHT22;226;48.606;9.096;2023-02-26T04:09:20;0.10;32.20
480;DHT22;226;48.606;9.096;2023-02-26T04:11:49;-0.10;32.30
480;DHT22;226;48.606;9.096;2023-02-26T04:14:18;-1.20;30.50
480;DHT22;226;48.606;9.096;2023-02-26T04:16:46;0.50;32.90
480;DHT22;226;48.606;9.096;2023-02-26T04:19:16;-1.20;30.40
480;DHT22;226;48.606;9.096;2023-02-26T04:21:44;-1.20;29.90
480;DHT22;226;48.606;9.096;2023-02-26T04:24:13;-1.10;30.50
480;DHT22;226;48.606;9.096;2023-02-26T04:26:41;-1.20;29.80
480;DHT22;226;48.606;9.096;2023-02-26T04:29:09;-1.30;30.40
480;DHT22;226;48.606;9.096;2023-02-26T04:31:37;-0.80;32.40
480;DHT22;226;48.606;9.096;2023-02-26T04:34:05;-1.50;30.90
480;DHT22;226;48.606;9.096;2023-02-26T04:36:35;-1.40;32.50
480;DHT22;226;48.606;9.096;2023-02-26T04:39:03;-1.40;31.20
480;DHT22;226;48.606;9.096;2023-02-26T04:41:31;1.00;34.40
480;DHT22;226;48.606;9.096;2023-02-26T04:43:59;-1.70;30.80
480;DHT22;226;48.606;9.096;2023-02-26T04:46:28;-1.40;32.70
480;DHT22;226;48.606;9.096;2023-02-26T04:48:56;-1.50;31.80
480;DHT22;226;48.606;9.096;2023-02-26T04:51:25;-1.60;33.10
480;DHT22;226;48.606;9.096;2023-02-26T04:53:54;-1.40;34.60
480;DHT22;226;48.606;9.096;2023-02-26T04:56:22;-1.10;35.30
480;DHT22;226;48.606;9.096;2023-02-26T04:58:51;-2.00;32.80
480;DHT22;226;48.606;9.096;2023-02-26T05:01:19;-1.10;34.60
480;DHT22;226;48.606;9.096;2023-02-26T05:03:48;-1.10;36.00
480;DHT22;226;48.606;9.096;2023-02-26T05:06:16;-1.80;36.20
480;DHT22;226;48.606;9.096;2023-02-26T05:08:44;0.70;38.20
480;DHT22;226;48.606;9.096;2023-02-26T05:11:13;-1.80;34.70
480;DHT22;226;48.606;9.096;2023-02-26T05:13:42;-1.80;36.90
480;DHT22;226;48.606;9.096;2023-02-26T05:16:10;-1.80;37.30
480;DHT22;226;48.606;9.096;2023-02-26T05:18:38;-1.90;38.10
480;DHT22;226;48.606;9.096;2023-02-26T05:21:06;-1.70;39.10
480;DHT22;226;48.606;9.096;2023-02-26T05:23:34;-1.80;39.00
480;DHT22;226;48.606;9.096;2023-02-26T05:26:03;-1.80;37.70
480;DHT22;226;48.606;9.096;2023-02-26T05:28:32;-1.70;37.10
480;DHT22;226;48.606;9.096;2023-02-26T05:31:02;-1.70;35.70
480;DHT22;226;48.606;9.096;2023-02-26T05:33:30;-1.70;36.20
480;DHT22;226;48.606;9.096;2023-02-26T05:35:59;-1.60;35.20
480;DHT22;226;48.606;9.096;2023-02-26T05:38:27;-1.60;35.60
480;DHT22;226;48.606;9.096;2023-02-26T05:40:56;-1.60;34.40
480;DHT22;226;48.606;9.096;2023-02-26T05:43:25;-1.70;35.00
480;DHT22;226;48.606;9.096;2023-02-26T05:45:55;-1.50;35.30
480;DHT22;226;48.606;9.096;2023-02-26T05:48:23;-1.80;35.20
480;DHT22;226;48.606;9.096;2023-02-26T05:50:51;-1.70;35.40
480;DHT22;226;48.606;9.096;2023-02-26T05:53:19;-1.90;36.00
480;DHT22;226;48.606;9.096;2023-02-26T05:55:48;-1.90;35.60
480;DHT22;226;48.606;9.096;2023-02-26T05:58:16;-1.90;36.10
480;DHT22;226;48.606;9.096;2023-02-26T06:00:44;-2.00;36.30
480;DHT22;226;48.606;9.096;2023-02-26T06:03:14;-2.00;36.40
480;DHT22;226;48.606;9.096;2023-02-26T06:05:42;-2.00;37.20
480;DHT22;226;48.606;9.096;2023-02-26T06:08:10;-2.00;37.50
480;DHT22;226;48.606;9.096;2023-02-26T06:10:41;-2.00;37.00
480;DHT22;226;48.606;9.096;2023-02-26T06:13:10;-1.60;37.70
480;DHT22;226;48.606;9.096;2023-02-26T06:15:38;-1.60;38.60
480;DHT22;226;48.606;9.096;2023-02-26T06:18:06;-2.10;39.60
480;DHT22;226;48.606;9.096;2023-02-26T06:20:36;-2.10;39.40
480;DHT22;226;48.606;9.096;2023-02-26T06:23:04;-2.10;39.80
480;DHT22;226;48.606;9.096;2023-02-26T06:25:32;-2.10;40.20
480;DHT22;226;48.606;9.096;2023-02-26T06:28:00;-2.10;40.20
480;DHT22;226;48.606;9.096;2023-02-26T06:30:28;-2.10;40.20
480;DHT22;226;48.606;9.096;2023-02-26T06:32:56;-2.20;39.50
480;DHT22;226;48.606;9.096;2023-02-26T06:35:24;-1.60;39.80
480;DHT22;226;48.606;9.096;2023-02-26T06:37:55;-2.00;39.20
480;DHT22;226;48.606;9.096;2023-02-26T06:40:23;-1.90;40.00
480;DHT22;226;48.606;9.096;2023-02-26T06:42:51;-2.00;39.70
480;DHT22;226;48.606;9.096;2023-02-26T06:45:19;-1.90;39.20
480;DHT22;226;48.606;9.096;2023-02-26T06:47:47;-1.60;38.40
480;DHT22;226;48.606;9.096;2023-02-26T06:50:16;-2.00;37.60
480;DHT22;226;48.606;9.096;2023-02-26T06:52:44;-1.90;38.80
480;DHT22;226;48.606;9.096;2023-02-26T06:55:13;-1.80;38.10
480;DHT22;226;48.606;9.096;2023-02-26T06:57:42;-1.70;38.20
480;DHT22;226;48.606;9.096;2023-02-26T07:00:11;-1.80;38.60
480;DHT22;226;48.606;9.096;2023-02-26T07:02:39;-1.80;38.10
480;DHT22;226;48.606;9.096;2023-02-26T07:05:08;-1.70;39.00
480;DHT22;226;48.606;9.096;2023-02-26T07:07:36;-1.70;38.50
480;DHT22;226;48.606;9.096;2023-02-26T07:10:05;-1.60;38.10
480;DHT22;226;48.606;9.096;2023-02-26T07:12:35;-1.50;37.50
480;DHT22;226;48.606;9.096;2023-02-26T07:15:04;-1.50;37.80
480;DHT22;226;48.606;9.096;2023-02-26T07:17:33;-1.40;37.30
480;DHT22;226;48.606;9.096;2023-02-26T07:20:01;-1.30;37.60
480;DHT22;226;48.606;9.096;2023-02-26T07:22:36;-1.40;36.60
480;DHT22;226;48.606;9.096;2023-02-26T07:25:04;-1.30;36.30
480;DHT22;226;48.606;9.096;2023-02-26T07:27:34;-1.30;36.30
480;DHT22;226;48.606;9.096;2023-02-26T07:30:05;-1.30;35.30
480;DHT22;226;48.606;9.096;2023-02-26T07:32:34;-1.10;36.20
480;DHT22;226;48.606;9.096;2023-02-26T07:35:02;-1.10;35.80
480;DHT22;226;48.606;9.096;2023-02-26T07:37:31;-1.00;35.60
480;DHT22;226;48.606;9.096;2023-02-26T07:39:59;-0.40;35.70
480;DHT22;226;48.606;9.096;2023-02-26T07:42:27;-1.00;35.00
480;DHT22;226;48.606;9.096;2023-02-26T07:44:56;-1.00;34.60
480;DHT22;226;48.606;9.096;2023-02-26T07:47:24;-1.10;35.80
480;DHT22;226;48.606;9.096;2023-02-26T07:49:52;-1.10;35.40
480;DHT22;226;48.606;9.096;2023-02-26T07:52:21;-1.20;35.70
480;DHT22;226;48.606;9.096;2023-02-26T07:54:49;-1.10;35.50
480;DHT22;226;48.606;9.096;2023-02-26T07:57:17;-0.30;36.60
480;DHT22;226;48.606;9.096;2023-02-26T07:59:45;-0.70;35.20
480;DHT22;226;48.606;9.096;2023-02-26T08:02:15;-0.80;33.40
480;DHT22;226;48.606;9.096;2023-02-26T08:04:43;-0.70;33.20
480;DHT22;226;48.606;9.096;2023-02-26T08:07:11;-0.50;32.50
480;DHT22;226;48.606;9.096;2023-02-26T08:09:39;0.10;32.50
480;DHT22;226;48.606;9.096;2023-02-26T08:12:08;0.40;31.70
480;DHT22;226;48.606;9.096;2023-02-26T08:14:36;-0.40;31.10
480;DHT22;226;48.606;9.096;2023-02-26T08:17:05;-0.40;31.40
480;DHT22;226;48.606;9.096;2023-02-26T08:19:35;-0.40;30.50
480;DHT22;226;48.606;9.096;2023-02-26T08:22:03;-0.20;31.20
480;DHT22;226;48.606;9.096;2023-02-26T08:24:31;-0.50;33.50
480;DHT22;226;48.606;9.096;2023-02-26T08:26:59;-0.50;34.50
480;DHT22;226;48.606;9.096;2023-02-26T08:29:27;-0.40;36.20
480;DHT22;226;48.606;9.096;2023-02-26T08:31:55;-0.30;35.00
480;DHT22;226;48.606;9.096;2023-02-26T08:34:24;-0.50;34.00
480;DHT22;226;48.606;9.096;2023-02-26T08:36:53;-0.40;34.20
480;DHT22;226;48.606;9.096;2023-02-26T08:39:21;-0.50;34.60
480;DHT22;226;48.606;9.096;2023-02-26T08:41:49;-0.60;33.40
480;DHT22;226;48.606;9.096;2023-02-26T08:44:17;-0.60;34.10
480;DHT22;226;48.606;9.096;2023-02-26T08:46:46;-0.60;35.30
480;DHT22;226;48.606;9.096;2023-02-26T08:49:14;-0.50;34.30
480;DHT22;226;48.606;9.096;2023-02-26T08:51:42;-0.30;34.20
480;DHT22;226;48.606;9.096;2023-02-26T08:54:11;0.20;31.20
480;DHT22;226;48.606;9.096;2023-02-26T08:56:39;-0.40;31.70
480;DHT22;226;48.606;9.096;2023-02-26T08:59:07;-0.40;31.80
480;DHT22;226;48.606;9.096;2023-02-26T09:01:37;-0.40;31.60
480;DHT22;226;48.606;9.096;2023-02-26T09:04:05;-0.30;31.20
480;DHT22;226;48.606;9.096;2023-02-26T09:06:34;-0.30;32.20
480;DHT22;226;48.606;9.096;2023-02-26T09:09:02;-0.30;32.20
480;DHT22;226;48.606;9.096;2023-02-26T09:11:32;-0.30;30.00
480;DHT22;226;48.606;9.096;2023-02-26T09:14:00;-0.40;29.70
480;DHT22;226;48.606;9.096;2023-02-26T09:16:29;-0.50;29.60
480;DHT22;226;48.606;9.096;2023-02-26T09:19:01;0.10;31.30
480;DHT22;226;48.606;9.096;2023-02-26T09:21:30;-0.40;30.90
480;DHT22;226;48.606;9.096;2023-02-26T09:23:58;-0.50;29.90
480;DHT22;226;48.606;9.096;2023-02-26T09:26:26;-0.40;30.40
480;DHT22;226;48.606;9.096;2023-02-26T09:28:56;-0.40;29.50
480;DHT22;226;48.606;9.096;2023-02-26T09:31:24;-0.10;30.50
480;DHT22;226;48.606;9.096;2023-02-26T09:33:53;-0.30;30.10
480;DHT22;226;48.606;9.096;2023-02-26T09:36:21;-0.10;30.20
480;DHT22;226;48.606;9.096;2023-02-26T09:38:50;0.20;30.00
480;DHT22;226;48.606;9.096;2023-02-26T09:41:25;-0.20;29.50
480;DHT22;226;48.606;9.096;2023-02-26T09:44:11;0.20;30.70
480;DHT22;226;48.606;9.096;2023-02-26T09:46:47;-0.50;30.80
480;DHT22;226;48.606;9.096;2023-02-26T09:49:46;-0.40;32.20
480;DHT22;226;48.606;9.096;2023-02-26T09:52:20;-0.30;31.50
480;DHT22;226;48.606;9.096;2023-02-26T09:54:51;-0.30;31.00
480;DHT22;226;48.606;9.096;2023-02-26T09:57:26;-0.10;32.00
480;DHT22;226;48.606;9.096;2023-02-26T09:59:57;-0.20;31.10
480;DHT22;226;48.606;9.096;2023-02-26T10:02:35;-0.30;31.60
480;DHT22;226;48.606;9.096;2023-02-26T10:05:17;-0.30;33.60
480;DHT22;226;48.606;9.096;2023-02-26T10:07:52;-0.40;33.10
480;DHT22;226;48.606;9.096;2023-02-26T10:10:28;-0.50;33.70
480;DHT22;226;48.606;9.096;2023-02-26T10:12:59;-0.40;31.50
480;DHT22;226;48.606;9.096;2023-02-26T10:15:33;-0.40;32.10
480;DHT22;226;48.606;9.096;2023-02-26T10:18:07;-0.30;32.50
480;DHT22;226;48.606;9.096;2023-02-26T10:20:41;-0.30;32.80
480;DHT22;226;48.606;9.096;2023-02-26T10:23:17;-0.10;31.70
480;DHT22;226;48.606;9.096;2023-02-26T10:25:51;0.00;32.20
480;DHT22;226;48.606;9.096;2023-02-26T10:28:36;-0.20;33.00
480;DHT22;226;48.606;9.096;2023-02-26T10:31:15;0.30;32.40
480;DHT22;226;48.606;9.096;2023-02-26T10:33:49;0.10;32.10
480;DHT22;226;48.606;9.096;2023-02-26T10:36:22;0.40;30.90
480;DHT22;226;48.606;9.096;2023-02-26T10:38:59;0.40;31.50
480;DHT22;226;48.606;9.096;2023-02-26T10:41:30;0.60;31.10
480;DHT22;226;48.606;9.096;2023-02-26T10:44:12;0.70;29.40
480;DHT22;226;48.606;9.096;2023-02-26T10:46:49;0.80;29.10
480;DHT22;226;48.606;9.096;2023-02-26T10:49:37;0.70;28.80
480;DHT22;226;48.606;9.096;2023-02-26T10:52:14;2.20;30.00
480;DHT22;226;48.606;9.096;2023-02-26T10:54:50;0.60;29.20
480;DHT22;226;48.606;9.096;2023-02-26T10:57:26;0.30;29.40
480;DHT22;226;48.606;9.096;2023-02-26T10:59:54;0.40;32.30
480;DHT22;226;48.606;9.096;2023-02-26T11:02:34;0.60;30.60
480;DHT22;226;48.606;9.096;2023-02-26T11:05:05;0.80;29.00
480;DHT22;226;48.606;9.096;2023-02-26T11:07:36;0.60;28.40
480;DHT22;226;48.606;9.096;2023-02-26T11:10:13;1.20;29.50
480;DHT22;226;48.606;9.096;2023-02-26T11:12:43;0.70;29.40
480;DHT22;226;48.606;9.096;2023-02-26T11:15:12;1.30;30.20
480;DHT22;226;48.606;9.096;2023-02-26T11:17:42;0.80;28.90
480;DHT22;226;48.606;9.096;2023-02-26T11:20:16;0.80;29.20
480;DHT22;226;48.606;9.096;2023-02-26T11:22:47;0.80;28.80
480;DHT22;226;48.606;9.096;2023-02-26T11:25:17;0.90;28.20
480;DHT22;226;48.606;9.096;2023-02-26T11:27:48;1.00;28.40
480;DHT22;226;48.606;9.096;2023-02-26T11:30:19;0.70;27.20
480;DHT22;226;48.606;9.096;2023-02-26T11:32:52;0.90;27.60
480;DHT22;226;48.606;9.096;2023-02-26T11:35:24;0.70;26.90
480;DHT22;226;48.606;9.096;2023-02-26T11:37:56;0.90;26.90
480;DHT22;226;48.606;9.096;2023-02-26T11:40:34;0.90;26.80
480;DHT22;226;48.606;9.096;2023-02-26T11:43:06;1.50;26.80
480;DHT22;226;48.606;9.096;2023-02-26T11:45:36;1.10;26.50
480;DHT22;226;48.606;9.096;2023-02-26T11:48:11;1.00;26.10
480;DHT22;226;48.606;9.096;2023-02-26T11:50:43;1.20;27.20
480;DHT22;226;48.606;9.096;2023-02-26T11:53:17;1.10;26.70
480;DHT22;226;48.606;9.096;2023-02-26T11:55:47;1.30;25.90
480;DHT22;226;48.606;9.096;2023-02-26T11:58:20;1.30;24.50
480;DHT22;226;48.606;9.096;2023-02-26T12:00:51;1.30;25.00
480;DHT22;226;48.606;9.096;2023-02-26T12:03:23;1.40;25.70
480;DHT22;226;48.606;9.096;2023-02-26T12:05:56;1.50;24.20
480;DHT22;226;48.606;9.096;2023-02-26T12:08:30;2.30;23.70
480;DHT22;226;48.606;9.096;2023-02-26T12:11:34;1.70;23.10
480;DHT22;226;48.606;9.096;2023-02-26T12:14:16;1.60;21.80
480;DHT22;226;48.606;9.096;2023-02-26T12:16:54;1.50;22.70
480;DHT22;226;48.606;9.096;2023-02-26T12:19:38;1.50;22.70
480;DHT22;226;48.606;9.096;2023-02-26T12:22:33;1.30;22.70
480;DHT22;226;48.606;9.096;2023-02-26T12:25:20;1.10;23.20
480;DHT22;226;48.606;9.096;2023-02-26T12:28:11;1.00;24.00
480;DHT22;226;48.606;9.096;2023-02-26T12:30:57;1.10;24.40
480;DHT22;226;48.606;9.096;2023-02-26T12:33:35;1.40;24.10
480;DHT22;226;48.606;9.096;2023-02-26T12:36:15;1.70;25.30
480;DHT22;226;48.606;9.096;2023-02-26T12:38:53;0.90;27.90
480;DHT22;226;48.606;9.096;2023-02-26T12:41:40;1.00;29.60
480;DHT22;226;48.606;9.096;2023-02-26T12:44:22;1.20;27.70
480;DHT22;226;48.606;9.096;2023-02-26T12:47:18;1.30;28.60
480;DHT22;226;48.606;9.096;2023-02-26T12:50:06;1.40;27.10
480;DHT22;226;48.606;9.096;2023-02-26T12:53:06;1.40;26.20
480;DHT22;226;48.606;9.096;2023-02-26T12:55:50;1.50;26.10
480;DHT22;226;48.606;9.096;2023-02-26T12:58:33;1.50;24.70
480;DHT22;226;48.606;9.096;2023-02-26T13:01:30;1.50;23.70
480;DHT22;226;48.606;9.096;2023-02-26T13:04:23;1.50;24.40
480;DHT22;226;48.606;9.096;2023-02-26T13:10:05;1.10;26.00
480;DHT22;226;48.606;9.096;2023-02-26T13:12:43;1.70;25.90
480;DHT22;226;48.606;9.096;2023-02-26T13:15:31;1.60;25.30
480;DHT22;226;48.606;9.096;2023-02-26T13:18:05;1.20;25.30
480;DHT22;226;48.606;9.096;2023-02-26T13:20:40;1.20;24.00
480;DHT22;226;48.606;9.096;2023-02-26T13:23:13;1.30;23.90
480;DHT22;226;48.606;9.096;2023-02-26T13:25:47;1.00;25.50
480;DHT22;226;48.606;9.096;2023-02-26T13:28:23;1.40;25.90
480;DHT22;226;48.606;9.096;2023-02-26T13:30:55;1.50;25.60
480;DHT22;226;48.606;9.096;2023-02-26T13:33:27;1.30;24.50
480;DHT22;226;48.606;9.096;2023-02-26T13:35:58;1.30;24.50
480;DHT22;226;48.606;9.096;2023-02-26T13:38:32;1.40;24.20
480;DHT22;226;48.606;9.096;2023-02-26T13:41:09;1.50;24.20
480;DHT22;226;48.606;9.096;2023-02-26T13:43:49;1.40;24.50
480;DHT22;226;48.606;9.096;2023-02-26T13:46:25;1.50;24.60
480;DHT22;226;48.606;9.096;2023-02-26T13:48:59;1.60;25.00
480;DHT22;226;48.606;9.096;2023-02-26T13:51:33;1.80;24.30
480;DHT22;226;48.606;9.096;2023-02-26T13:54:07;1.60;24.40
480;DHT22;226;48.606;9.096;2023-02-26T13:56:53;1.50;24.90
480;DHT22;226;48.606;9.096;2023-02-26T13:59:36;1.60;24.10
480;DHT22;226;48.606;9.096;2023-02-26T14:05:50;1.70;22.80
480;DHT22;226;48.606;9.096;2023-02-26T14:11:44;1.70;23.10
480;DHT22;226;48.606;9.096;2023-02-26T14:14:18;1.70;19.80
480;DHT22;226;48.606;9.096;2023-02-26T14:16:53;2.10;20.90
480;DHT22;226;48.606;9.096;2023-02-26T14:19:31;1.90;18.30
480;DHT22;226;48.606;9.096;2023-02-26T14:22:13;1.90;18.30
480;DHT22;226;48.606;9.096;2023-02-26T14:24:49;2.10;21.90
480;DHT22;226;48.606;9.096;2023-02-26T14:27:31;2.80;12.70
480;DHT22;226;48.606;9.096;2023-02-26T14:30:14;4.10;11.90
480;DHT22;226;48.606;9.096;2023-02-26T14:32:46;4.60;8.60
480;DHT22;226;48.606;9.096;2023-02-26T14:35:18;4.20;8.40
480;DHT22;226;48.606;9.096;2023-02-26T14:37:58;3.80;8.50
480;DHT22;226;48.606;9.096;2023-02-26T14:40:31;3.30;9.50
480;DHT22;226;48.606;9.096;2023-02-26T14:43:04;2.80;10.00
480;DHT22;226;48.606;9.096;2023-02-26T14:45:36;2.80;10.60
480;DHT22;226;48.606;9.096;2023-02-26T14:48:06;2.70;10.20
480;DHT22;226;48.606;9.096;2023-02-26T14:50:45;3.00;8.60
480;DHT22;226;48.606;9.096;2023-02-26T14:56:22;4.40;6.90
480;DHT22;226;48.606;9.096;2023-02-26T14:59:14;4.90;12.40
480;DHT22;226;48.606;9.096;2023-02-26T15:01:48;4.60;7.10
480;DHT22;226;48.606;9.096;2023-02-26T15:04:39;4.80;4.30
480;DHT22;226;48.606;9.096;2023-02-26T15:07:28;4.80;4.00
480;DHT22;226;48.606;9.096;2023-02-26T15:10:12;4.40;4.00
480;DHT22;226;48.606;9.096;2023-02-26T15:13:00;4.30;5.20
480;DHT22;226;48.606;9.096;2023-02-26T15:15:46;4.10;5.20
480;DHT22;226;48.606;9.096;2023-02-26T15:18:34;4.10;5.50
480;DHT22;226;48.606;9.096;2023-02-26T15:21:12;3.80;6.50
480;DHT22;226;48.606;9.096;2023-02-26T15:23:48;3.30;6.90
480;DHT22;226;48.606;9.096;2023-02-26T15:26:20;3.10;7.80
480;DHT22;226;48.606;9.096;2023-02-26T15:28:51;2.90;7.50
480;DHT22;226;48.606;9.096;2023-02-26T15:31:29;2.80;7.30
480;DHT22;226;48.606;9.096;2023-02-26T15:33:58;2.70;7.00
480;DHT22;226;48.606;9.096;2023-02-26T15:36:28;2.60;7.40
480;DHT22;226;48.606;9.096;2023-02-26T15:38:58;2.50;7.50
480;DHT22;226;48.606;9.096;2023-02-26T15:41:28;2.50;7.30
480;DHT22;226;48.606;9.096;2023-02-26T15:44:00;2.50;8.60
480;DHT22;226;48.606;9.096;2023-02-26T15:46:34;2.70;9.10
480;DHT22;226;48.606;9.096;2023-02-26T15:49:06;2.20;9.90
480;DHT22;226;48.606;9.096;2023-02-26T15:51:36;2.10;10.10
480;DHT22;226;48.606;9.096;2023-02-26T15:54:05;2.30;14.60
480;DHT22;226;48.606;9.096;2023-02-26T15:56:35;1.80;19.30
480;DHT22;226;48.606;9.096;2023-02-26T15:59:10;2.10;19.20
480;DHT22;226;48.606;9.096;2023-02-26T16:01:41;1.80;18.20
480;DHT22;226;48.606;9.096;2023-02-26T16:04:13;1.60;18.60
480;DHT22;226;48.606;9.096;2023-02-26T16:06:44;1.60;18.60
480;DHT22;226;48.606;9.096;2023-02-26T16:09:17;1.60;18.80
480;DHT22;226;48.606;9.096;2023-02-26T16:11:47;1.70;18.80
480;DHT22;226;48.606;9.096;2023-02-26T16:14:20;1.80;18.70
480;DHT22;226;48.606;9.096;2023-02-26T16:16:52;1.80;18.10
480;DHT22;226;48.606;9.096;2023-02-26T16:19:29;1.70;18.20
480;DHT22;226;48.606;9.096;2023-02-26T16:22:00;1.60;17.00
480;DHT22;226;48.606;9.096;2023-02-26T16:24:30;1.60;17.20
480;DHT22;226;48.606;9.096;2023-02-26T16:27:02;1.60;17.90
480;DHT22;226;48.606;9.096;2023-02-26T16:29:35;1.60;18.10
480;DHT22;226;48.606;9.096;2023-02-26T16:32:06;1.60;17.90
480;DHT22;226;48.606;9.096;2023-02-26T16:34:41;1.70;18.30
480;DHT22;226;48.606;9.096;2023-02-26T16:37:17;1.60;18.00
480;DHT22;226;48.606;9.096;2023-02-26T16:39:51;1.70;18.20
480;DHT22;226;48.606;9.096;2023-02-26T16:42:31;1.70;18.00
480;DHT22;226;48.606;9.096;2023-02-26T16:45:13;1.90;18.00
480;DHT22;226;48.606;9.096;2023-02-26T16:47:46;1.60;17.90
480;DHT22;226;48.606;9.096;2023-02-26T16:50:18;1.60;17.70
480;DHT22;226;48.606;9.096;2023-02-26T16:52:56;1.40;17.60
480;DHT22;226;48.606;9.096;2023-02-26T16:55:25;1.50;20.00
480;DHT22;226;48.606;9.096;2023-02-26T16:57:54;1.30;20.40
480;DHT22;226;48.606;9.096;2023-02-26T17:00:24;1.20;20.40
480;DHT22;226;48.606;9.096;2023-02-26T17:03:04;1.30;20.30
480;DHT22;226;48.606;9.096;2023-02-26T17:05:36;1.30;20.50
480;DHT22;226;48.606;9.096;2023-02-26T17:08:08;1.30;19.60
480;DHT22;226;48.606;9.096;2023-02-26T17:10:44;1.40;19.70
480;DHT22;226;48.606;9.096;2023-02-26T17:13:15;1.30;19.50
480;DHT22;226;48.606;9.096;2023-02-26T17:15:45;1.70;19.30
480;DHT22;226;48.606;9.096;2023-02-26T17:18:16;1.40;15.90
480;DHT22;226;48.606;9.096;2023-02-26T17:20:45;1.20;16.10
480;DHT22;226;48.606;9.096;2023-02-26T17:23:15;1.20;14.30
480;DHT22;226;48.606;9.096;2023-02-26T17:25:45;1.20;14.20
480;DHT22;226;48.606;9.096;2023-02-26T17:28:20;1.20;13.70
480;DHT22;226;48.606;9.096;2023-02-26T17:30:48;1.20;12.70
480;DHT22;226;48.606;9.096;2023-02-26T17:33:18;1.30;12.10
480;DHT22;226;48.606;9.096;2023-02-26T17:35:47;1.10;12.00